sensor_id;sensor_type;location;lat;lon;timestamp;pressure;altitude;pressure_sealevel;temperature;humidity
69689;BME280;56932;38.402;-96.176;2023-02-26T00:01:12;97878.08;;;22.94;17.03
69689;BME280;56932;38.402;-96.176;2023-02-26T00:03:34;97887.88;;;23.08;17.01
69689;BME280;56932;38.402;-96.176;2023-02-26T00:06:00;97898.59;;;23.12;16.89
69689;BME280;56932;38.402;-96.176;2023-02-26T00:08:25;97907.24;;;23.13;16.93
69689;BME280;56932;38.402;-96.176;2023-02-26T00:10:50;97917.08;;;22.28;17.28
69689;BME280;56932;38.402;-96.176;2023-02-26T00:13:16;97928.60;;;23.22;16.76
69689;BME280;56932;38.402;-96.176;2023-02-26T00:15:42;97934.60;;;22.72;17.14
69689;BME280;56932;38.402;-96.176;2023-02-26T00:18:11;97943.40;;;22.96;17.01
69689;BME280;56932;38.402;-96.176;2023-02-26T00:20:35;97951.51;;;23.01;16.95
69689;BME280;56932;38.402;-96.176;2023-02-26T00:22:58;97957.14;;;23.49;16.63
69689;BME280;56932;38.402;-96.176;2023-02-26T00:25:23;97954.43;;;23.17;16.85
69689;BME280;56932;38.402;-96.176;2023-02-26T00:27:50;97939.35;;;22.67;16.91
69689;BME280;56932;38.402;-96.176;2023-02-26T00:30:15;97936.43;;;23.00;17.03
69689;BME280;56932;38.402;-96.176;2023-02-26T00:32:41;97935.56;;;22.86;17.02
69689;BME280;56932;38.402;-96.176;2023-02-26T00:35:07;97940.16;;;22.73;17.14
69689;BME280;56932;38.402;-96.176;2023-02-26T00:40:07;97941.19;;;22.59;17.21
69689;BME280;56932;38.402;-96.176;2023-02-26T00:42:22;97941.40;;;22.61;17.22
69689;BME280;56932;38.402;-96.176;2023-02-26T00:44:48;97934.93;;;22.59;16.92
69689;BME280;56932;38.402;-96.176;2023-02-26T00:47:21;97931.90;;;23.22;16.75
69689;BME280;56932;38.402;-96.176;2023-02-26T00:49:51;97926.39;;;23.25;16.96
69689;BME280;56932;38.402;-96.176;2023-02-26T00:52:09;97927.33;;;22.72;17.31
69689;BME280;56932;38.402;-96.176;2023-02-26T00:54:30;97921.04;;;22.41;17.39
69689;BME280;56932;38.402;-96.176;2023-02-26T00:56:56;97917.44;;;22.65;17.19
69689;BME280;56932;38.402;-96.176;2023-02-26T00:59:21;97917.46;;;23.08;16.83
69689;BME280;56932;38.402;-96.176;2023-02-26T01:01:47;97923.89;;;22.42;17.03
69689;BME280;56932;38.402;-96.176;2023-02-26T01:04:13;97922.03;;;22.66;17.07
69689;BME280;56932;38.402;-96.176;2023-02-26T01:06:42;97916.37;;;22.67;17.16
69689;BME280;56932;38.402;-96.176;2023-02-26T01:09:09;97910.95;;;22.57;17.25
69689;BME280;56932;38.402;-96.176;2023-02-26T01:11:28;97900.29;;;22.04;17.51
69689;BME280;56932;38.402;-96.176;2023-02-26T01:13:54;97905.41;;;22.54;17.25
69689;BME280;56932;38.402;-96.176;2023-02-26T01:16:22;97911.87;;;22.79;17.04
69689;BME280;56932;38.402;-96.176;2023-02-26T01:18:49;97920.24;;;22.89;16.91
69689;BME280;56932;38.402;-96.176;2023-02-26T01:21:14;97929.84;;;22.52;16.98
69689;BME280;56932;38.402;-96.176;2023-02-26T01:23:39;97929.12;;;23.17;16.95
69689;BME280;56932;38.402;-96.176;2023-02-26T01:26:04;97927.84;;;21.71;17.72
69689;BME280;56932;38.402;-96.176;2023-02-26T01:28:27;97922.74;;;22.42;17.38
69689;BME280;56932;38.402;-96.176;2023-02-26T01:30:54;97937.84;;;21.58;17.64
69689;BME280;56932;38.402;-96.176;2023-02-26T01:33:22;97941.62;;;22.58;17.21
69689;BME280;56932;38.402;-96.176;2023-02-26T01:35:47;97941.81;;;21.93;17.70
69689;BME280;56932;38.402;-96.176;2023-02-26T01:38:17;97923.87;;;22.22;17.52
69689;BME280;56932;38.402;-96.176;2023-02-26T01:43:04;97922.01;;;21.96;17.65
69689;BME280;56932;38.402;-96.176;2023-02-26T01:45:30;97927.84;;;21.89;17.76
69689;BME280;56932;38.402;-96.176;2023-02-26T01:47:56;97927.86;;;22.55;17.36
69689;BME280;56932;38.402;-96.176;2023-02-26T01:50:19;97928.40;;;22.30;17.48
69689;BME280;56932;38.402;-96.176;2023-02-26T01:55:07;97945.12;;;22.25;17.27
69689;BME280;56932;38.402;-96.176;2023-02-26T01:57:33;97937.29;;;21.66;17.66
69689;BME280;56932;38.402;-96.176;2023-02-26T01:59:58;97924.42;;;22.83;17.01
69689;BME280;56932;38.402;-96.176;2023-02-26T02:02:24;97926.01;;;22.14;17.62
69689;BME280;56932;38.402;-96.176;2023-02-26T02:04:50;97923.22;;;22.57;17.06
69689;BME280;56932;38.402;-96.176;2023-02-26T02:07:16;97924.41;;;22.45;17.22
69689;BME280;56932;38.402;-96.176;2023-02-26T02:09:41;97917.20;;;21.90;17.61
69689;BME280;56932;38.402;-96.176;2023-02-26T02:12:16;97905.99;;;21.87;17.99
69689;BME280;56932;38.402;-96.176;2023-02-26T02:14:52;97898.61;;;21.26;18.41
69689;BME280;56932;38.402;-96.176;2023-02-26T02:17:13;97902.55;;;21.82;17.94
69689;BME280;56932;38.402;-96.176;2023-02-26T02:19:38;97893.71;;;22.64;16.92
69689;BME280;56932;38.402;-96.176;2023-02-26T02:21:57;97880.03;;;22.10;16.86
69689;BME280;56932;38.402;-96.176;2023-02-26T02:24:20;97885.77;;;21.88;17.23
69689;BME280;56932;38.402;-96.176;2023-02-26T02:26:51;97891.30;;;22.33;17.01
69689;BME280;56932;38.402;-96.176;2023-02-26T02:31:33;97898.04;;;22.65;16.76
69689;BME280;56932;38.402;-96.176;2023-02-26T02:34:02;97898.26;;;22.02;17.31
69689;BME280;56932;38.402;-96.176;2023-02-26T02:36:26;97890.68;;;23.21;16.99
69689;BME280;56932;38.402;-96.176;2023-02-26T02:38:52;97880.87;;;21.40;17.48
69689;BME280;56932;38.402;-96.176;2023-02-26T02:41:16;97892.80;;;21.77;17.48
69689;BME280;56932;38.402;-96.176;2023-02-26T02:43:40;97885.86;;;21.83;17.47
69689;BME280;56932;38.402;-96.176;2023-02-26T02:46:05;97888.79;;;21.91;17.20
69689;BME280;56932;38.402;-96.176;2023-02-26T02:48:32;97908.66;;;21.67;17.29
69689;BME280;56932;38.402;-96.176;2023-02-26T02:50:59;97897.33;;;22.12;16.89
69689;BME280;56932;38.402;-96.176;2023-02-26T02:53:23;97897.27;;;22.45;17.06
69689;BME280;56932;38.402;-96.176;2023-02-26T02:55:49;97896.90;;;22.45;17.20
69689;BME280;56932;38.402;-96.176;2023-02-26T02:58:13;97893.21;;;21.72;17.77
69689;BME280;56932;38.402;-96.176;2023-02-26T03:00:41;97884.38;;;21.88;17.86
69689;BME280;56932;38.402;-96.176;2023-02-26T03:03:09;97892.70;;;21.72;18.00
69689;BME280;56932;38.402;-96.176;2023-02-26T03:05:28;97891.47;;;22.24;17.63
69689;BME280;56932;38.402;-96.176;2023-02-26T03:07:56;97892.87;;;21.28;17.78
69689;BME280;56932;38.402;-96.176;2023-02-26T03:10:19;97901.51;;;22.51;17.54
69689;BME280;56932;38.402;-96.176;2023-02-26T03:12:45;97914.46;;;21.78;17.61
69689;BME280;56932;38.402;-96.176;2023-02-26T03:15:11;97910.33;;;22.10;17.32
69689;BME280;56932;38.402;-96.176;2023-02-26T03:17:44;97918.42;;;22.06;17.40
69689;BME280;56932;38.402;-96.176;2023-02-26T03:20:10;97918.69;;;22.06;17.20
69689;BME280;56932;38.402;-96.176;2023-02-26T03:27:23;97909.00;;;20.87;18.05
69689;BME280;56932;38.402;-96.176;2023-02-26T03:29:49;97907.29;;;21.13;18.26
69689;BME280;56932;38.402;-96.176;2023-02-26T03:32:13;97903.17;;;21.07;18.27
69689;BME280;56932;38.402;-96.176;2023-02-26T03:34:39;97914.17;;;21.26;18.32
69689;BME280;56932;38.402;-96.176;2023-02-26T03:37:14;97913.98;;;20.95;18.32
69689;BME280;56932;38.402;-96.176;2023-02-26T03:39:42;97913.03;;;21.22;18.23
69689;BME280;56932;38.402;-96.176;2023-02-26T03:41:56;97915.75;;;20.29;18.47
69689;BME280;56932;38.402;-96.176;2023-02-26T03:44:19;97915.14;;;21.21;18.09
69689;BME280;56932;38.402;-96.176;2023-02-26T03:46:47;97914.92;;;21.03;18.14
69689;BME280;56932;38.402;-96.176;2023-02-26T03:49:11;97915.63;;;21.14;18.03
69689;BME280;56932;38.402;-96.176;2023-02-26T03:51:35;97912.20;;;20.99;18.12
69689;BME280;56932;38.402;-96.176;2023-02-26T03:54:13;97918.82;;;20.71;18.13
69689;BME280;56932;38.402;-96.176;2023-02-26T03:56:38;97928.10;;;20.99;18.25
69689;BME280;56932;38.402;-96.176;2023-02-26T03:58:50;97930.09;;;20.02;18.42
69689;BME280;56932;38.402;-96.176;2023-02-26T04:01:19;97934.89;;;20.91;18.26
69689;BME280;56932;38.402;-96.176;2023-02-26T04:03:44;97940.12;;;20.63;18.40
69689;BME280;56932;38.402;-96.176;2023-02-26T04:06:07;97935.43;;;20.35;18.47
69689;BME280;56932;38.402;-96.176;2023-02-26T04:08:32;97916.12;;;20.56;18.31
69689;BME280;56932;38.402;-96.176;2023-02-26T04:10:59;97913.45;;;20.28;18.31
69689;BME280;56932;38.402;-96.176;2023-02-26T04:13:23;97914.52;;;20.49;18.34
69689;BME280;56932;38.402;-96.176;2023-02-26T04:15:49;97905.61;;;20.18;18.23
69689;BME280;56932;38.402;-96.176;2023-02-26T04:18:14;97892.39;;;20.54;18.29
69689;BME280;56932;38.402;-96.176;2023-02-26T04:20:40;97890.38;;;20.15;18.53
69689;BME280;56932;38.402;-96.176;2023-02-26T04:23:05;97890.66;;;19.92;18.66
69689;BME280;56932;38.402;-96.176;2023-02-26T04:25:31;97884.77;;;20.71;18.39
69689;BME280;56932;38.402;-96.176;2023-02-26T04:27:56;97882.77;;;19.81;18.65
69689;BME280;56932;38.402;-96.176;2023-02-26T04:30:22;97876.80;;;20.08;18.46
69689;BME280;56932;38.402;-96.176;2023-02-26T04:32:48;97869.65;;;20.39;18.21
69689;BME280;56932;38.402;-96.176;2023-02-26T04:35:13;97867.78;;;20.48;18.40
69689;BME280;56932;38.402;-96.176;2023-02-26T04:37:39;97882.52;;;20.32;18.51
69689;BME280;56932;38.402;-96.176;2023-02-26T04:40:05;97874.11;;;19.75;18.57
69689;BME280;56932;38.402;-96.176;2023-02-26T04:42:30;97864.26;;;20.27;18.38
69689;BME280;56932;38.402;-96.176;2023-02-26T04:44:55;97863.36;;;19.87;18.51
69689;BME280;56932;38.402;-96.176;2023-02-26T04:47:20;97855.77;;;19.41;18.98
69689;BME280;56932;38.402;-96.176;2023-02-26T04:49:47;97854.40;;;18.72;19.29
69689;BME280;56932;38.402;-96.176;2023-02-26T04:52:12;97849.51;;;19.94;18.76
69689;BME280;56932;38.402;-96.176;2023-02-26T04:54:37;97831.95;;;20.01;18.70
69689;BME280;56932;38.402;-96.176;2023-02-26T04:57:03;97834.11;;;19.12;18.98
69689;BME280;56932;38.402;-96.176;2023-02-26T04:59:28;97839.56;;;19.86;18.80
69689;BME280;56932;38.402;-96.176;2023-02-26T05:01:54;97843.22;;;19.73;18.57
69689;BME280;56932;38.402;-96.176;2023-02-26T05:04:20;97855.10;;;19.49;18.71
69689;BME280;56932;38.402;-96.176;2023-02-26T05:06:45;97841.90;;;19.92;18.55
69689;BME280;56932;38.402;-96.176;2023-02-26T05:09:11;97833.58;;;20.31;18.46
69689;BME280;56932;38.402;-96.176;2023-02-26T05:11:36;97815.88;;;20.02;18.63
69689;BME280;56932;38.402;-96.176;2023-02-26T05:14:02;97824.74;;;19.44;18.89
69689;BME280;56932;38.402;-96.176;2023-02-26T05:16:27;97823.36;;;19.46;18.87
69689;BME280;56932;38.402;-96.176;2023-02-26T05:18:53;97810.37;;;19.21;18.76
69689;BME280;56932;38.402;-96.176;2023-02-26T05:21:19;97796.85;;;19.44;18.84
69689;BME280;56932;38.402;-96.176;2023-02-26T05:23:44;97786.34;;;18.73;19.49
69689;BME280;56932;38.402;-96.176;2023-02-26T05:26:10;97801.01;;;18.12;20.18
69689;BME280;56932;38.402;-96.176;2023-02-26T05:28:35;97804.21;;;18.67;20.23
69689;BME280;56932;38.402;-96.176;2023-02-26T05:31:01;97798.67;;;18.34;20.15
69689;BME280;56932;38.402;-96.176;2023-02-26T05:33:27;97791.91;;;18.22;20.47
69689;BME280;56932;38.402;-96.176;2023-02-26T05:35:52;97782.42;;;17.51;20.51
69689;BME280;56932;38.402;-96.176;2023-02-26T05:38:18;97775.24;;;18.01;20.73
69689;BME280;56932;38.402;-96.176;2023-02-26T05:40:44;97764.39;;;18.34;20.69
69689;BME280;56932;38.402;-96.176;2023-02-26T05:43:09;97766.52;;;17.96;20.65
69689;BME280;56932;38.402;-96.176;2023-02-26T05:45:34;97763.41;;;18.30;20.81
69689;BME280;56932;38.402;-96.176;2023-02-26T05:48:00;97766.29;;;18.41;20.41
69689;BME280;56932;38.402;-96.176;2023-02-26T05:50:26;97756.37;;;18.76;20.40
69689;BME280;56932;38.402;-96.176;2023-02-26T05:52:52;97751.47;;;18.04;20.24
69689;BME280;56932;38.402;-96.176;2023-02-26T05:55:17;97749.30;;;19.09;20.24
69689;BME280;56932;38.402;-96.176;2023-02-26T05:57:42;97747.00;;;19.10;20.12
69689;BME280;56932;38.402;-96.176;2023-02-26T06:00:09;97753.95;;;19.12;19.84
69689;BME280;56932;38.402;-96.176;2023-02-26T06:02:33;97739.94;;;19.72;19.77
69689;BME280;56932;38.402;-96.176;2023-02-26T06:04:59;97742.82;;;18.18;20.22
69689;BME280;56932;38.402;-96.176;2023-02-26T06:07:24;97747.19;;;19.58;19.47
69689;BME280;56932;38.402;-96.176;2023-02-26T06:09:50;97741.75;;;18.56;20.05
69689;BME280;56932;38.402;-96.176;2023-02-26T06:12:15;97743.87;;;19.24;20.30
69689;BME280;56932;38.402;-96.176;2023-02-26T06:14:41;97756.56;;;18.92;20.26
69689;BME280;56932;38.402;-96.176;2023-02-26T06:17:06;97764.86;;;18.99;20.39
69689;BME280;56932;38.402;-96.176;2023-02-26T06:19:32;97760.03;;;18.83;20.53
69689;BME280;56932;38.402;-96.176;2023-02-26T06:21:58;97761.86;;;18.85;20.18
69689;BME280;56932;38.402;-96.176;2023-02-26T06:24:23;97771.06;;;18.99;20.43
69689;BME280;56932;38.402;-96.176;2023-02-26T06:26:49;97779.10;;;18.48;20.30
69689;BME280;56932;38.402;-96.176;2023-02-26T06:29:14;97773.64;;;19.17;20.17
69689;BME280;56932;38.402;-96.176;2023-02-26T06:31:39;97778.69;;;19.14;20.53
69689;BME280;56932;38.402;-96.176;2023-02-26T06:34:05;97789.82;;;19.03;20.44
69689;BME280;56932;38.402;-96.176;2023-02-26T06:36:31;97792.54;;;18.99;20.49
69689;BME280;56932;38.402;-96.176;2023-02-26T06:38:56;97795.72;;;19.51;19.54
69689;BME280;56932;38.402;-96.176;2023-02-26T06:41:21;97800.38;;;19.44;19.94
69689;BME280;56932;38.402;-96.176;2023-02-26T06:43:47;97800.06;;;19.49;19.74
69689;BME280;56932;38.402;-96.176;2023-02-26T06:46:12;97796.82;;;18.94;20.10
69689;BME280;56932;38.402;-96.176;2023-02-26T06:48:38;97801.75;;;19.15;20.15
69689;BME280;56932;38.402;-96.176;2023-02-26T06:51:04;97797.20;;;19.20;19.94
69689;BME280;56932;38.402;-96.176;2023-02-26T06:53:29;97808.42;;;19.74;19.65
69689;BME280;56932;38.402;-96.176;2023-02-26T06:55:55;97807.90;;;18.76;20.20
69689;BME280;56932;38.402;-96.176;2023-02-26T06:58:20;97806.08;;;19.97;19.48
69689;BME280;56932;38.402;-96.176;2023-02-26T07:00:46;97798.12;;;19.33;19.55
69689;BME280;56932;38.402;-96.176;2023-02-26T07:03:13;97772.68;;;19.75;19.58
69689;BME280;56932;38.402;-96.176;2023-02-26T07:05:37;97753.22;;;19.64;19.66
69689;BME280;56932;38.402;-96.176;2023-02-26T07:08:03;97739.02;;;19.79;19.35
69689;BME280;56932;38.402;-96.176;2023-02-26T07:10:28;97741.94;;;21.00;18.63
69689;BME280;56932;38.402;-96.176;2023-02-26T07:12:54;97743.48;;;21.15;18.12
69689;BME280;56932;38.402;-96.176;2023-02-26T07:15:19;97732.91;;;20.29;18.84
69689;BME280;56932;38.402;-96.176;2023-02-26T07:17:45;97740.30;;;20.11;18.94
69689;BME280;56932;38.402;-96.176;2023-02-26T07:20:11;97740.01;;;21.07;18.50
69689;BME280;56932;38.402;-96.176;2023-02-26T07:22:36;97741.90;;;21.55;18.12
69689;BME280;56932;38.402;-96.176;2023-02-26T07:25:02;97748.17;;;19.82;19.06
69689;BME280;56932;38.402;-96.176;2023-02-26T07:27:27;97756.31;;;21.21;17.97
69689;BME280;56932;38.402;-96.176;2023-02-26T07:29:52;97766.35;;;21.12;17.64
69689;BME280;56932;38.402;-96.176;2023-02-26T07:32:18;97764.12;;;20.87;18.08
69689;BME280;56932;38.402;-96.176;2023-02-26T07:34:44;97756.33;;;21.67;17.88
69689;BME280;56932;38.402;-96.176;2023-02-26T07:37:09;97744.22;;;20.95;18.18
69689;BME280;56932;38.402;-96.176;2023-02-26T07:39:35;97733.14;;;21.32;17.90
69689;BME280;56932;38.402;-96.176;2023-02-26T07:42:00;97734.55;;;21.19;17.78
69689;BME280;56932;38.402;-96.176;2023-02-26T07:44:26;97735.90;;;20.87;18.14
69689;BME280;56932;38.402;-96.176;2023-02-26T07:46:51;97738.01;;;21.02;17.86
69689;BME280;56932;38.402;-96.176;2023-02-26T07:49:17;97735.35;;;21.00;17.87
69689;BME280;56932;38.402;-96.176;2023-02-26T07:51:43;97726.08;;;21.49;17.64
69689;BME280;56932;38.402;-96.176;2023-02-26T07:54:08;97720.07;;;21.11;17.71
69689;BME280;56932;38.402;-96.176;2023-02-26T07:56:33;97717.04;;;21.40;17.66
69689;BME280;56932;38.402;-96.176;2023-02-26T07:58:59;97717.64;;;21.10;18.02
69689;BME280;56932;38.402;-96.176;2023-02-26T08:01:25;97712.59;;;21.07;17.83
69689;BME280;56932;38.402;-96.176;2023-02-26T08:03:50;97704.92;;;20.65;17.79
69689;BME280;56932;38.402;-96.176;2023-02-26T08:06:16;97707.92;;;21.27;17.83
69689;BME280;56932;38.402;-96.176;2023-02-26T08:08:41;97713.65;;;21.38;17.72
69689;BME280;56932;38.402;-96.176;2023-02-26T08:11:07;97720.10;;;20.58;18.08
69689;BME280;56932;38.402;-96.176;2023-02-26T08:13:32;97724.23;;;21.43;17.65
69689;BME280;56932;38.402;-96.176;2023-02-26T08:15:58;97726.98;;;20.54;18.05
69689;BME280;56932;38.402;-96.176;2023-02-26T08:18:24;97727.23;;;21.11;17.83
69689;BME280;56932;38.402;-96.176;2023-02-26T08:20:50;97723.75;;;20.80;17.71
69689;BME280;56932;38.402;-96.176;2023-02-26T08:23:15;97734.93;;;21.07;17.82
69689;BME280;56932;38.402;-96.176;2023-02-26T08:25:40;97738.90;;;20.62;17.82
69689;BME280;56932;38.402;-96.176;2023-02-26T08:28:06;97744.38;;;20.84;17.95
69689;BME280;56932;38.402;-96.176;2023-02-26T08:30:31;97744.47;;;20.74;17.83
69689;BME280;56932;38.402;-96.176;2023-02-26T08:32:57;97748.59;;;20.53;17.82
69689;BME280;56932;38.402;-96.176;2023-02-26T08:35:22;97745.17;;;21.07;17.80
69689;BME280;56932;38.402;-96.176;2023-02-26T08:37:48;97741.30;;;19.99;18.16
69689;BME280;56932;38.402;-96.176;2023-02-26T08:40:14;97730.96;;;20.50;17.97
69689;BME280;56932;38.402;-96.176;2023-02-26T08:42:39;97723.10;;;20.73;17.98
69689;BME280;56932;38.402;-96.176;2023-02-26T08:45:05;97717.04;;;20.87;17.88
69689;BME280;56932;38.402;-96.176;2023-02-26T08:47:30;97712.91;;;20.85;17.88
69689;BME280;56932;38.402;-96.176;2023-02-26T08:49:56;97717.36;;;20.69;17.99
69689;BME280;56932;38.402;-96.176;2023-02-26T08:52:21;97713.78;;;21.26;17.72
69689;BME280;56932;38.402;-96.176;2023-02-26T08:54:47;97717.37;;;20.25;17.92
69689;BME280;56932;38.402;-96.176;2023-02-26T08:57:12;97720.17;;;20.86;17.83
69689;BME280;56932;38.402;-96.176;2023-02-26T08:59:38;97707.93;;;20.67;17.95
69689;BME280;56932;38.402;-96.176;2023-02-26T09:02:03;97708.71;;;20.51;17.72
69689;BME280;56932;38.402;-96.176;2023-02-26T09:04:29;97695.84;;;20.61;17.99
69689;BME280;56932;38.402;-96.176;2023-02-26T09:06:54;97683.62;;;20.18;17.94
69689;BME280;56932;38.402;-96.176;2023-02-26T09:09:20;97667.08;;;20.61;17.97
69689;BME280;56932;38.402;-96.176;2023-02-26T09:11:46;97650.14;;;20.24;18.02
69689;BME280;56932;38.402;-96.176;2023-02-26T09:14:11;97648.59;;;19.73;18.35
69689;BME280;56932;38.402;-96.176;2023-02-26T09:16:37;97636.27;;;20.47;18.04
69689;BME280;56932;38.402;-96.176;2023-02-26T09:19:03;97626.74;;;19.95;18.40
69689;BME280;56932;38.402;-96.176;2023-02-26T09:21:27;97638.10;;;20.46;18.33
69689;BME280;56932;38.402;-96.176;2023-02-26T09:23:53;97636.94;;;19.63;18.27
69689;BME280;56932;38.402;-96.176;2023-02-26T09:26:18;97632.93;;;20.11;18.26
69689;BME280;56932;38.402;-96.176;2023-02-26T09:28:44;97635.96;;;20.11;18.38
69689;BME280;56932;38.402;-96.176;2023-02-26T09:31:10;97636.01;;;20.24;18.17
69689;BME280;56932;38.402;-96.176;2023-02-26T09:33:35;97641.34;;;20.73;18.17
69689;BME280;56932;38.402;-96.176;2023-02-26T09:36:01;97638.78;;;20.22;18.21
69689;BME280;56932;38.402;-96.176;2023-02-26T09:38:26;97636.36;;;20.18;18.26
69689;BME280;56932;38.402;-96.176;2023-02-26T09:40:53;97627.67;;;20.20;18.05
69689;BME280;56932;38.402;-96.176;2023-02-26T09:43:31;97620.49;;;20.12;18.31
69689;BME280;56932;38.402;-96.176;2023-02-26T09:45:44;97610.16;;;20.12;18.30
69689;BME280;56932;38.402;-96.176;2023-02-26T09:48:11;97606.83;;;20.43;18.24
69689;BME280;56932;38.402;-96.176;2023-02-26T09:50:40;97582.94;;;20.16;18.44
69689;BME280;56932;38.402;-96.176;2023-02-26T09:53:02;97574.23;;;19.57;18.69
69689;BME280;56932;38.402;-96.176;2023-02-26T09:55:28;97577.31;;;20.24;18.38
69689;BME280;56932;38.402;-96.176;2023-02-26T09:57:53;97567.45;;;19.40;18.61
69689;BME280;56932;38.402;-96.176;2023-02-26T10:00:27;97576.64;;;20.32;18.47
69689;BME280;56932;38.402;-96.176;2023-02-26T10:02:49;97586.05;;;19.89;18.46
69689;BME280;56932;38.402;-96.176;2023-02-26T10:05:17;97586.93;;;19.61;18.64
69689;BME280;56932;38.402;-96.176;2023-02-26T10:07:38;97585.72;;;20.00;18.51
69689;BME280;56932;38.402;-96.176;2023-02-26T10:10:10;97582.00;;;19.84;18.47
69689;BME280;56932;38.402;-96.176;2023-02-26T10:12:27;97577.34;;;20.39;18.40
69689;BME280;56932;38.402;-96.176;2023-02-26T10:14:58;97573.66;;;19.22;18.58
69689;BME280;56932;38.402;-96.176;2023-02-26T10:17:20;97568.57;;;20.21;18.38
69689;BME280;56932;38.402;-96.176;2023-02-26T10:19:43;97554.31;;;20.09;18.46
69689;BME280;56932;38.402;-96.176;2023-02-26T10:22:14;97556.44;;;20.08;18.60
69689;BME280;56932;38.402;-96.176;2023-02-26T10:24:37;97559.76;;;19.91;18.60
69689;BME280;56932;38.402;-96.176;2023-02-26T10:27:02;97555.42;;;19.56;18.65
69689;BME280;56932;38.402;-96.176;2023-02-26T10:29:30;97552.38;;;19.80;18.47
69689;BME280;56932;38.402;-96.176;2023-02-26T10:32:00;97541.29;;;19.42;18.54
69689;BME280;56932;38.402;-96.176;2023-02-26T10:34:27;97537.49;;;19.53;18.64
69689;BME280;56932;38.402;-96.176;2023-02-26T10:36:46;97527.68;;;20.19;18.48
69689;BME280;56932;38.402;-96.176;2023-02-26T10:39:14;97530.60;;;20.02;18.46
69689;BME280;56932;38.402;-96.176;2023-02-26T10:41:33;97536.69;;;20.13;18.57
69689;BME280;56932;38.402;-96.176;2023-02-26T10:44:03;97525.38;;;19.86;18.49
69689;BME280;56932;38.402;-96.176;2023-02-26T10:46:28;97509.82;;;19.45;18.96
69689;BME280;56932;38.402;-96.176;2023-02-26T10:48:56;97495.93;;;19.20;19.02
69689;BME280;56932;38.402;-96.176;2023-02-26T10:51:16;97483.20;;;17.96;20.34
69689;BME280;56932;38.402;-96.176;2023-02-26T10:53:41;97477.18;;;19.27;19.45
69689;BME280;56932;38.402;-96.176;2023-02-26T10:56:07;97497.26;;;18.88;19.47
69689;BME280;56932;38.402;-96.176;2023-02-26T10:58:29;97512.94;;;17.98;20.50
69689;BME280;56932;38.402;-96.176;2023-02-26T11:00:56;97516.39;;;18.21;20.46
69689;BME280;56932;38.402;-96.176;2023-02-26T11:03:24;97517.06;;;17.82;20.78
69689;BME280;56932;38.402;-96.176;2023-02-26T11:05:47;97506.24;;;18.00;20.72
69689;BME280;56932;38.402;-96.176;2023-02-26T11:08:17;97501.78;;;17.97;21.03
69689;BME280;56932;38.402;-96.176;2023-02-26T11:10:41;97488.16;;;17.86;20.96
69689;BME280;56932;38.402;-96.176;2023-02-26T11:13:03;97474.19;;;18.35;20.63
69689;BME280;56932;38.402;-96.176;2023-02-26T11:15:28;97467.78;;;18.73;20.62
69689;BME280;56932;38.402;-96.176;2023-02-26T11:17:56;97466.07;;;18.66;20.21
69689;BME280;56932;38.402;-96.176;2023-02-26T11:20:29;97458.03;;;19.24;20.37
69689;BME280;56932;38.402;-96.176;2023-02-26T11:22:48;97445.51;;;19.04;20.37
69689;BME280;56932;38.402;-96.176;2023-02-26T11:25:13;97454.29;;;18.87;20.30
69689;BME280;56932;38.402;-96.176;2023-02-26T11:27:37;97457.32;;;19.23;20.40
69689;BME280;56932;38.402;-96.176;2023-02-26T11:30:09;97458.69;;;19.06;20.60
69689;BME280;56932;38.402;-96.176;2023-02-26T11:32:31;97456.37;;;19.13;20.61
69689;BME280;56932;38.402;-96.176;2023-02-26T11:34:54;97452.89;;;18.84;20.36
69689;BME280;56932;38.402;-96.176;2023-02-26T11:37:20;97448.05;;;19.11;20.57
69689;BME280;56932;38.402;-96.176;2023-02-26T11:39:45;97436.31;;;19.33;20.42
69689;BME280;56932;38.402;-96.176;2023-02-26T11:42:10;97432.12;;;19.15;20.44
69689;BME280;56932;38.402;-96.176;2023-02-26T11:44:40;97434.55;;;18.98;20.63
69689;BME280;56932;38.402;-96.176;2023-02-26T11:47:02;97424.09;;;18.68;20.69
69689;BME280;56932;38.402;-96.176;2023-02-26T11:49:27;97422.16;;;18.96;20.88
69689;BME280;56932;38.402;-96.176;2023-02-26T11:52:02;97424.08;;;18.54;20.86
69689;BME280;56932;38.402;-96.176;2023-02-26T11:54:22;97426.15;;;18.70;20.98
69689;BME280;56932;38.402;-96.176;2023-02-26T11:56:42;97420.84;;;19.64;20.62
69689;BME280;56932;38.402;-96.176;2023-02-26T11:59:15;97418.19;;;18.89;20.87
69689;BME280;56932;38.402;-96.176;2023-02-26T12:01:35;97413.04;;;18.87;20.93
69689;BME280;56932;38.402;-96.176;2023-02-26T12:04:01;97411.31;;;19.34;20.63
69689;BME280;56932;38.402;-96.176;2023-02-26T12:06:24;97413.01;;;19.06;21.18
69689;BME280;56932;38.402;-96.176;2023-02-26T12:08:50;97416.99;;;18.72;20.95
69689;BME280;56932;38.402;-96.176;2023-02-26T12:13:45;97413.19;;;20.62;19.73
69689;BME280;56932;38.402;-96.176;2023-02-26T12:16:14;97420.42;;;19.44;20.58
69689;BME280;56932;38.402;-96.176;2023-02-26T12:18:44;97418.99;;;19.24;20.78
69689;BME280;56932;38.402;-96.176;2023-02-26T12:21:08;97421.81;;;19.14;20.69
69689;BME280;56932;38.402;-96.176;2023-02-26T12:23:40;97417.18;;;20.04;20.03
69689;BME280;56932;38.402;-96.176;2023-02-26T12:25:57;97418.41;;;19.47;20.19
69689;BME280;56932;38.402;-96.176;2023-02-26T12:28:24;97420.92;;;20.87;19.20
69689;BME280;56932;38.402;-96.176;2023-02-26T12:30:53;97417.87;;;20.56;19.60
69689;BME280;56932;38.402;-96.176;2023-02-26T12:33:15;97420.98;;;20.06;19.94
69689;BME280;56932;38.402;-96.176;2023-02-26T12:35:41;97424.76;;;20.59;19.53
69689;BME280;56932;38.402;-96.176;2023-02-26T12:38:05;97427.58;;;20.62;19.33
69689;BME280;56932;38.402;-96.176;2023-02-26T12:40:38;97424.07;;;20.92;19.12
69689;BME280;56932;38.402;-96.176;2023-02-26T12:42:52;97424.42;;;20.03;19.77
69689;BME280;56932;38.402;-96.176;2023-02-26T12:45:25;97425.63;;;20.22;19.63
69689;BME280;56932;38.402;-96.176;2023-02-26T12:47:46;97423.26;;;21.04;19.18